Time;durP1;ratioP1;P1;durP2;ratioP2;P2;SDS_P1;SDS_P2;PMS_P1;PMS_P2;Temp;Humidity;BMP_temperature;BMP_pressure;BME280_temperature;BME280_humidity;BME280_pressure;Samples;Min_cycle;Max_cycle;Signal;HPM_P1;HPM_P2
2022/08/21 00:04:45;;;;;;;7.47;3.13;;;;;;;16.56;48.76;100016.34;10388947;28;20076;-59
2022/08/21 00:09:56;;;;;;;11.27;3.40;;;;;;;16.48;49.14;100020.59;10388410;28;20057;-59
2022/08/21 00:14:59;;;;;;;7.13;2.85;;;;;;;16.53;48.78;100018.44;10386389;28;20527;-60
2022/08/21 00:20:01;;;;;;;9.15;3.40;;;;;;;16.40;48.72;100015.94;10389097;28;20053;-59
2022/08/21 00:25:05;;;;;;;7.88;3.05;;;;;;;16.24;48.79;100013.69;10388566;28;20061;-59
2022/08/21 00:30:08;;;;;;;11.27;3.28;;;;;;;16.18;48.91;100016.00;10387371;28;20054;-59
2022/08/21 00:35:17;;;;;;;6.97;3.05;;;;;;;16.22;49.13;100018.25;10388780;28;20049;-59
2022/08/21 00:40:23;;;;;;;9.43;3.30;;;;;;;16.29;48.73;100023.03;10384551;28;20097;-59
2022/08/21 00:45:27;;;;;;;11.25;3.30;;;;;;;16.27;48.86;100015.25;10386963;28;20060;-59
2022/08/21 00:50:33;;;;;;;6.35;3.05;;;;;;;16.27;48.61;100014.41;10386165;28;20053;-59
2022/08/21 00:55:36;;;;;;;9.10;3.10;;;;;;;16.32;48.41;100012.22;10348983;28;1128960;-59
2022/08/21 01:00:44;;;;;;;10.93;3.22;;;;;;;16.26;48.95;100004.81;10388958;28;20056;-59
2022/08/21 01:05:46;;;;;;;8.18;3.20;;;;;;;16.18;48.53;100011.53;10390600;28;20068;-59
2022/08/21 01:10:48;;;;;;;8.13;3.20;;;;;;;15.98;49.24;100006.19;10389234;28;20056;-59
2022/08/21 01:15:59;;;;;;;11.57;3.67;;;;;;;16.01;49.07;100006.81;10387963;28;20140;-59
2022/08/21 01:21:06;;;;;;;8.45;3.20;;;;;;;15.91;49.32;100012.94;10387896;28;20049;-59
2022/08/21 01:26:09;;;;;;;7.82;3.08;;;;;;;15.83;49.13;100005.66;10389553;28;20160;-59
2022/08/21 01:31:13;;;;;;;9.38;3.22;;;;;;;15.86;49.68;100001.91;10387656;28;20512;-60
2022/08/21 01:36:15;;;;;;;8.77;3.28;;;;;;;15.85;49.65;100005.53;10388559;28;20049;-59
2022/08/21 01:41:17;;;;;;;9.38;3.53;;;;;;;15.71;49.89;100005.81;10389569;28;20049;-59
2022/08/21 01:46:18;;;;;;;8.35;3.13;;;;;;;15.66;50.00;100003.53;10387430;28;20061;-59
2022/08/21 01:51:20;;;;;;;8.70;3.53;;;;;;;15.63;50.13;100001.16;10386765;28;20501;-59
2022/08/21 01:56:22;;;;;;;7.82;3.22;;;;;;;15.39;50.05;100011.78;10387436;28;20063;-59
2022/08/21 02:01:24;;;;;;;10.13;3.17;;;;;;;15.20;51.04;100010.69;10388476;28;20041;-59
2022/08/21 02:06:27;;;;;;;8.40;3.15;;;;;;;15.22;51.24;100004.38;10391317;28;20521;-59
2022/08/21 02:11:31;;;;;;;7.47;3.35;;;;;;;15.16;51.37;100006.63;10395293;28;20092;-59
2022/08/21 02:16:33;;;;;;;8.77;3.05;;;;;;;15.14;51.48;100000.63;10392053;28;20056;-59
2022/08/21 02:21:35;;;;;;;8.88;3.30;;;;;;;15.16;51.08;99991.63;10393671;28;20056;-59
2022/08/21 02:26:36;;;;;;;7.70;3.22;;;;;;;15.12;51.35;99997.28;10393128;28;20576;-59
2022/08/21 02:31:38;;;;;;;7.35;3.40;;;;;;;15.04;51.77;99984.69;10393703;28;20045;-59
2022/08/21 02:36:40;;;;;;;8.15;3.50;;;;;;;14.95;52.18;99988.03;10391717;28;20057;-59
2022/08/21 02:41:41;;;;;;;7.47;3.30;;;;;;;14.86;52.30;99987.91;10392713;28;20049;-59
2022/08/21 02:46:43;;;;;;;7.72;3.25;;;;;;;14.79;52.24;99989.31;10391895;28;20523;-59
2022/08/21 02:51:45;;;;;;;6.53;3.20;;;;;;;14.70;52.40;99996.13;10391854;28;20049;-59
2022/08/21 02:56:46;;;;;;;8.02;3.45;;;;;;;14.70;52.18;99997.91;10390479;28;20067;-59
2022/08/21 03:01:48;;;;;;;6.38;3.13;;;;;;;14.65;52.63;99993.00;10393078;28;20041;-59
2022/08/21 03:06:50;;;;;;;8.48;3.38;;;;;;;14.70;52.45;99993.50;10386162;28;20057;-59
2022/08/21 03:11:53;;;;;;;7.15;3.50;;;;;;;14.64;52.71;99990.47;10383904;28;20051;-59
2022/08/21 03:16:55;;;;;;;8.45;3.53;;;;;;;14.55;53.11;99987.59;10382428;28;20053;-59
2022/08/21 03:21:56;;;;;;;7.53;3.38;;;;;;;14.50;53.17;99984.47;10383945;28;20045;-59
2022/08/21 03:26:58;;;;;;;7.63;3.58;;;;;;;14.42;53.16;99992.06;10386059;28;20505;-59
2022/08/21 03:32:00;;;;;;;9.57;3.40;;;;;;;13.89;54.36;99997.78;10385809;28;20057;-59
2022/08/21 03:37:03;;;;;;;6.75;3.20;;;;;;;14.03;54.22;99988.91;10384048;28;20049;-59
2022/08/21 03:42:06;;;;;;;7.85;3.53;;;;;;;14.12;53.87;99994.34;10383154;28;20045;-59
2022/08/21 03:47:08;;;;;;;7.95;3.78;;;;;;;14.06;54.13;99991.31;10383811;28;20374;-59
2022/08/21 03:52:09;;;;;;;7.35;3.53;;;;;;;13.87;54.60;99996.22;10382478;28;20046;-59
2022/08/21 03:57:11;;;;;;;10.07;3.85;;;;;;;13.89;54.71;99999.56;10383667;28;20147;-59
2022/08/21 04:02:19;;;;;;;6.93;3.30;;;;;;;13.90;54.86;100003.91;10383394;28;20053;-59
2022/08/21 04:07:21;;;;;;;7.80;3.65;;;;;;;13.86;54.45;100010.34;10384472;28;20584;-59
2022/08/21 04:12:23;;;;;;;9.85;3.70;;;;;;;13.67;55.12;100013.44;10382506;28;20366;-59
2022/08/21 04:17:25;;;;;;;6.45;3.30;;;;;;;13.66;55.25;100022.25;10384331;28;20128;-59
2022/08/21 04:22:26;;;;;;;8.35;3.70;;;;;;;13.67;54.99;100027.41;10383482;28;20046;-59
2022/08/21 04:27:28;;;;;;;12.07;3.60;;;;;;;13.77;55.00;100027.59;10383207;28;20060;-59
2022/08/21 04:32:30;;;;;;;8.80;3.60;;;;;;;13.77;54.93;100035.47;10382062;28;20073;-59
2022/08/21 04:37:32;;;;;;;7.60;3.53;;;;;;;13.76;55.05;100036.41;10382305;28;20108;-59
2022/08/21 04:42:44;;;;;;;9.50;3.70;;;;;;;13.77;55.08;100035.47;10379717;28;20340;-59
2022/08/21 04:47:50;;;;;;;8.25;3.72;;;;;;;13.79;54.66;100044.09;10382813;28;20430;-59
2022/08/21 04:52:54;;;;;;;9.93;3.63;;;;;;;13.92;54.65;100055.44;10390561;28;20048;-59
2022/08/21 04:57:56;;;;;;;7.18;3.40;;;;;;;14.09;54.07;100056.81;10389806;28;20049;-59
2022/08/21 05:03:00;;;;;;;8.27;3.55;;;;;;;14.12;53.99;100054.00;10391315;28;20053;-59
2022/08/21 05:08:03;;;;;;;7.75;3.50;;;;;;;14.23;54.05;100060.13;10389002;28;20420;-59
2022/08/21 05:13:06;;;;;;;8.13;3.33;;;;;;;14.48;53.47;100059.19;10388222;28;20390;-60
2022/08/21 05:18:08;;;;;;;9.13;3.25;;;;;;;14.72;53.09;100056.56;10388967;28;20063;-60
2022/08/21 05:23:12;;;;;;;9.00;3.45;;;;;;;14.91;52.87;100055.06;10389492;28;20391;-59
2022/08/21 05:28:14;;;;;;;6.68;3.17;;;;;;;15.03;52.39;100059.41;10388779;28;20056;-60
2022/08/21 05:33:15;;;;;;;8.10;3.15;;;;;;;15.22;52.10;100059.69;10388037;28;20056;-59
2022/08/21 05:38:17;;;;;;;7.72;3.53;;;;;;;15.27;51.88;100062.81;10370645;28;20590;-60
2022/08/21 05:43:19;;;;;;;7.32;3.08;;;;;;;15.23;51.48;100068.41;10388655;28;20797;-60
2022/08/21 05:48:23;;;;;;;9.23;3.45;;;;;;;15.27;51.54;100068.06;10387588;28;20477;-59
2022/08/21 05:53:26;;;;;;;7.43;3.38;;;;;;;15.32;51.58;100062.44;10386702;28;20052;-60
2022/08/21 05:58:27;;;;;;;8.55;3.72;;;;;;;15.38;51.30;100057.56;10385381;28;20564;-60
2022/08/21 06:03:36;;;;;;;9.05;3.50;;;;;;;15.30;51.41;100053.81;10387670;28;20149;-59
2022/08/21 06:08:37;;;;;;;7.05;3.47;;;;;;;15.36;51.24;100053.34;10386151;28;20046;-60
2022/08/21 06:13:39;;;;;;;8.57;3.55;;;;;;;15.65;50.94;100048.47;10386498;28;20315;-60
2022/08/21 06:18:41;;;;;;;8.32;3.70;;;;;;;15.91;50.33;100047.25;10387944;28;20054;-59
2022/08/21 06:23:44;;;;;;;7.22;3.65;;;;;;;16.00;50.18;100036.78;10386968;28;20060;-59
2022/08/21 06:28:46;;;;;;;9.68;3.53;;;;;;;16.12;50.01;100042.91;10386933;28;20059;-60
2022/08/21 06:33:48;;;;;;;9.10;3.53;;;;;;;16.35;49.36;100035.72;10384373;28;20390;-59
2022/08/21 06:38:50;;;;;;;11.52;3.78;;;;;;;16.50;49.14;100047.69;10368234;28;20482;-59
2022/08/21 06:43:53;;;;;;;8.02;3.55;;;;;;;16.70;48.74;100042.47;10387467;28;20140;-60
2022/08/21 06:48:56;;;;;;;9.52;3.97;;;;;;;17.03;48.44;100036.16;10386327;28;20049;-59
2022/08/21 06:53:58;;;;;;;9.27;3.97;;;;;;;17.15;48.31;100036.91;10385793;28;20041;-58
2022/08/21 06:59:00;;;;;;;7.93;3.60;;;;;;;17.22;47.89;100036.22;10386110;28;20041;-59
2022/08/21 07:04:02;;;;;;;9.40;3.33;;;;;;;17.65;47.41;100038.69;10382317;28;20053;-59
2022/08/21 07:09:04;;;;;;;8.27;3.40;;;;;;;17.76;47.05;100031.50;10383286;28;20462;-59
2022/08/21 07:14:06;;;;;;;8.88;3.38;;;;;;;18.03;46.95;100028.25;10384774;28;20271;-59
2022/08/21 07:19:08;;;;;;;9.98;3.50;;;;;;;18.07;46.58;100028.78;10383263;28;20449;-59
2022/08/21 07:24:10;;;;;;;10.05;3.90;;;;;;;18.27;46.33;100028.72;10383344;28;20055;-59
2022/08/21 07:29:11;;;;;;;11.60;3.60;;;;;;;18.38;46.18;100028.56;10382765;28;20506;-59
2022/08/21 07:34:13;;;;;;;11.25;3.47;;;;;;;18.69;45.88;100026.63;10381988;28;20049;-60
2022/08/21 07:39:15;;;;;;;8.98;3.97;;;;;;;19.16;45.10;100017.78;10382715;28;20053;-59
2022/08/21 07:44:17;;;;;;;8.50;3.75;;;;;;;20.23;43.15;100003.84;10381683;28;20056;-59
2022/08/21 07:49:18;;;;;;;7.95;3.65;;;;;;;21.08;41.56;100004.91;10372820;28;20048;-59
2022/08/21 07:54:21;;;;;;;14.40;4.15;;;;;;;21.76;40.21;99995.09;10362681;28;20061;-59
2022/08/21 07:59:35;;;;;;;11.75;4.20;;;;;;;22.28;39.24;99993.09;10381002;28;20405;-59
2022/08/21 08:04:38;;;;;;;11.13;3.75;;;;;;;23.08;37.82;99980.75;10382283;28;20050;-59
2022/08/21 08:09:51;;;;;;;11.02;3.60;;;;;;;23.36;37.12;99977.50;10381410;28;20049;-59
2022/08/21 08:14:53;;;;;;;9.52;3.70;;;;;;;23.69;36.71;99972.91;10381713;28;20088;-59
2022/08/21 08:19:55;;;;;;;10.18;3.83;;;;;;;23.99;35.94;99958.72;10382332;28;20059;-59
2022/08/21 08:24:56;;;;;;;7.95;3.40;;;;;;;24.49;35.28;99958.19;10388482;28;20508;-59
2022/08/21 08:29:58;;;;;;;9.43;3.38;;;;;;;24.61;35.19;99955.94;10390166;28;20045;-60
2022/08/21 08:35:00;;;;;;;10.93;3.70;;;;;;;25.20;34.12;99955.03;10390857;28;20049;-59
2022/08/21 08:40:02;;;;;;;11.73;4.53;;;;;;;25.43;33.84;99954.91;10391277;28;20089;-59
2022/08/21 08:45:30;;;;;;;11.82;3.50;;;;;;;25.71;32.51;99955.91;10389736;28;20076;-59
2022/08/21 08:50:41;;;;;;;13.15;4.00;;;;;;;26.11;31.89;99949.16;10389986;28;20260;-60
2022/08/21 08:55:45;;;;;;;11.55;4.05;;;;;;;25.94;32.20;99951.22;10388628;28;20510;-60
2022/08/21 09:00:50;;;;;;;11.80;3.60;;;;;;;26.29;31.49;99939.66;10381647;28;20516;-60
2022/08/21 09:06:08;;;;;;;14.30;3.67;;;;;;;26.61;31.13;99940.97;10387531;28;20437;-60
2022/08/21 09:11:23;;;;;;;9.73;3.60;;;;;;;26.89;30.02;99928.41;10378117;28;20120;-60
2022/08/21 09:16:47;;;;;;;10.05;3.28;;;;;;;26.83;30.11;99918.47;10388192;28;20049;-60
2022/08/21 09:22:01;;;;;;;13.25;3.65;;;;;;;26.69;30.04;99914.84;10387390;28;20045;-60
2022/08/21 09:27:08;;;;;;;7.97;3.20;;;;;;;27.23;29.20;99904.25;10389355;28;20057;-60
2022/08/21 09:32:17;;;;;;;9.98;3.08;;;;;;;27.36;28.75;99901.63;10384606;28;20045;-60
2022/08/21 09:37:19;;;;;;;;;;;;;;;27.14;29.58;99905.44;10389272;28;20060;-60
2022/08/21 09:42:27;;;;;;;7.97;3.05;;;;;;;27.18;29.13;99898.66;10389461;28;20345;-60
2022/08/21 09:47:30;;;;;;;10.30;3.55;;;;;;;27.70;28.40;99894.50;10388717;28;20041;-60
2022/08/21 09:52:31;;;;;;;9.18;2.80;;;;;;;27.78;28.13;99897.03;10385625;28;20041;-60
2022/08/21 09:57:39;;;;;;;11.55;3.10;;;;;;;27.98;28.09;99879.94;10386332;28;20205;-60
2022/08/21 10:02:47;;;;;;;8.15;3.00;;;;;;;27.10;28.41;99881.84;10383772;28;20045;-60
2022/08/21 10:07:49;;;;;;;8.35;2.92;;;;;;;26.15;29.16;99875.38;10386964;28;20049;-60
2022/08/21 10:13:27;;;;;;;8.15;2.80;;;;;;;25.74;29.13;99870.63;10383603;28;20056;-60
2022/08/21 10:18:51;;;;;;;7.07;2.25;;;;;;;26.61;26.95;99861.34;10388583;28;20312;-60
2022/08/21 10:24:23;;;;;;;6.93;2.35;;;;;;;26.70;27.54;99848.59;10387437;28;20307;-60
2022/08/21 10:30:11;;;;;;;5.88;2.50;;;;;;;26.93;26.98;99851.84;10374202;28;20057;-60
2022/08/21 10:35:56;;;;;;;5.93;2.05;;;;;;;27.16;26.05;99849.69;10380580;28;20060;-60
2022/08/21 10:41:15;;;;;;;6.78;2.33;;;;;;;26.80;27.11;99851.75;10372246;28;20117;-60
2022/08/21 10:46:29;;;;;;;4.95;2.08;;;;;;;26.80;26.41;99843.69;10384556;28;20434;-60
2022/08/21 10:51:56;;;;;;;7.00;2.30;;;;;;;27.19;26.16;99830.50;10382392;28;20136;-61
2022/08/21 10:57:32;;;;;;;7.03;2.35;;;;;;;26.92;26.33;99827.84;10382547;28;20132;-60
2022/08/21 11:03:06;;;;;;;8.02;2.40;;;;;;;26.98;26.08;99824.38;10379687;28;20049;-60
2022/08/21 11:08:41;;;;;;;5.15;2.08;;;;;;;27.01;26.15;99814.09;10382876;28;20064;-60
2022/08/21 11:13:49;;;;;;;6.38;2.33;;;;;;;26.85;26.26;99825.16;10382386;28;20144;-60
2022/08/21 11:19:07;;;;;;;5.25;2.10;;;;;;;26.88;26.20;99814.03;10383213;28;20051;-60
2022/08/21 11:24:44;;;;;;;6.20;2.10;;;;;;;27.03;26.38;99816.56;10382459;28;20517;-60
2022/08/21 11:29:55;;;;;;;5.78;2.20;;;;;;;26.94;25.19;99812.38;10351870;28;20108;-60
2022/08/21 11:35:15;;;;;;;6.25;2.13;;;;;;;26.83;24.36;99810.28;10381099;28;20132;-60
2022/08/21 11:40:17;;;;;;;5.38;1.90;;;;;;;26.84;24.84;99802.03;10380699;28;20115;-60
2022/08/21 11:45:26;;;;;;;6.72;1.90;;;;;;;27.11;24.74;99814.53;10381299;28;20369;-60
2022/08/21 11:50:33;;;;;;;5.00;1.83;;;;;;;27.16;24.63;99809.41;10380290;28;20111;-60
2022/08/21 11:56:02;;;;;;;4.53;1.90;;;;;;;27.06;24.58;99800.88;10377944;28;20486;-60
2022/08/21 12:01:11;;;;;;;5.18;2.00;;;;;;;27.01;24.20;99797.97;10391111;28;20550;-60
2022/08/21 12:06:14;;;;;;;5.78;1.90;;;;;;;27.16;24.49;99793.31;10388344;28;20064;-60
2022/08/21 12:11:25;;;;;;;4.38;1.70;;;;;;;27.10;24.29;99794.06;10390938;28;20057;-60
2022/08/21 12:16:37;;;;;;;4.57;1.90;;;;;;;27.24;24.41;99798.50;10388990;28;20451;-60
2022/08/21 12:21:54;;;;;;;5.30;1.95;;;;;;;27.42;24.02;99797.94;10390112;28;20045;-60
2022/08/21 12:27:00;;;;;;;4.82;1.80;;;;;;;27.42;23.56;99796.06;10389720;28;20064;-60
2022/08/21 12:32:14;;;;;;;6.72;2.00;;;;;;;26.99;22.78;99788.47;10389075;28;20160;-60
2022/08/21 12:37:38;;;;;;;4.75;1.90;;;;;;;27.29;23.54;99793.38;10389645;28;20052;-60
2022/08/21 12:42:49;;;;;;;5.25;1.60;;;;;;;27.82;22.79;99785.41;10378268;28;20045;-60
2022/08/21 12:47:59;;;;;;;3.17;1.40;;;;;;;28.08;22.51;99785.41;10388985;28;20582;-60
2022/08/21 12:53:14;;;;;;;3.88;1.73;;;;;;;28.01;22.14;99779.22;10389341;28;20055;-61
2022/08/21 12:58:24;;;;;;;5.05;1.70;;;;;;;28.14;22.15;99768.44;10384213;28;20703;-60
2022/08/21 13:03:27;;;;;;;3.60;1.77;;;;;;;27.94;22.02;99757.72;10387966;28;20438;-60
2022/08/21 13:08:29;;;;;;;5.25;2.00;;;;;;;27.94;22.40;99754.19;10387873;28;20360;-60
2022/08/21 13:13:32;;;;;;;5.22;2.00;;;;;;;27.85;23.39;99748.19;10387895;28;20052;-60
2022/08/21 13:18:39;;;;;;;4.10;1.70;;;;;;;28.04;22.04;99758.13;10388455;28;20176;-60
2022/08/21 13:23:45;;;;;;;4.75;1.60;;;;;;;27.95;21.99;99743.22;10387412;28;20038;-60
2022/08/21 13:28:52;;;;;;;3.78;1.60;;;;;;;27.98;21.78;99741.97;10384523;28;20140;-60
2022/08/21 13:33:55;;;;;;;3.38;1.50;;;;;;;28.02;22.12;99745.91;10388002;28;20053;-60
2022/08/21 13:38:57;;;;;;;4.43;1.73;;;;;;;27.85;22.32;99737.44;10388503;28;20136;-60
2022/08/21 13:44:14;;;;;;;6.65;2.00;;;;;;;27.83;22.43;99727.94;10384910;28;20064;-60
2022/08/21 13:49:30;;;;;;;3.88;1.55;;;;;;;28.16;22.12;99729.56;10387864;28;20808;-60
2022/08/21 13:54:41;;;;;;;4.20;1.70;;;;;;;27.93;22.92;99720.28;10386514;28;20055;-60
2022/08/21 13:59:42;;;;;;;4.45;1.70;;;;;;;28.30;21.92;99730.38;10386242;28;20053;-60
2022/08/21 14:04:54;;;;;;;4.10;1.50;;;;;;;28.61;21.80;99722.44;10387244;28;20060;-60
2022/08/21 14:09:55;;;;;;;4.00;1.45;;;;;;;28.76;21.48;99720.31;10383074;28;20087;-61
2022/08/21 14:15:01;;;;;;;3.53;1.58;;;;;;;28.67;21.40;99718.88;10382311;28;20042;-60
2022/08/21 14:20:08;;;;;;;4.57;1.70;;;;;;;28.72;21.19;99716.38;10384025;28;20037;-60
2022/08/21 14:25:12;;;;;;;4.18;1.70;;;;;;;28.76;21.97;99714.94;10384330;28;20712;-60
2022/08/21 14:30:26;;;;;;;3.17;1.60;;;;;;;28.71;21.49;99711.19;10380783;28;20056;-60
2022/08/21 14:35:29;;;;;;;4.55;1.63;;;;;;;28.64;21.58;99695.09;10384360;28;20049;-60
2022/08/21 14:40:33;;;;;;;4.60;1.70;;;;;;;28.56;21.43;99697.19;10383937;28;20475;-60
2022/08/21 14:45:36;;;;;;;5.05;1.65;;;;;;;28.59;21.90;99697.59;10383403;28;20052;-60
2022/08/21 14:50:38;;;;;;;4.72;1.70;;;;;;;28.38;21.89;99703.25;10383970;28;20128;-60
2022/08/21 15:01:03;;;;;;;5.78;1.90;;;;;;;28.39;22.76;99706.78;10381783;28;20046;-60
2022/08/21 15:06:07;;;;;;;5.43;2.10;;;;;;;28.65;22.45;99694.03;10384782;28;20061;-60
2022/08/21 15:11:12;;;;;;;4.50;1.90;;;;;;;28.36;22.66;99707.22;10382682;28;20537;-60
2022/08/21 15:16:35;;;;;;;4.50;1.80;;;;;;;28.16;22.38;99701.81;10381450;28;20071;-59
2022/08/21 15:21:37;;;;;;;5.78;1.75;;;;;;;28.22;22.53;99703.69;10382969;28;20395;-59
2022/08/21 15:26:39;;;;;;;5.32;1.90;;;;;;;27.95;22.72;99691.34;10369974;28;20053;-59
2022/08/21 15:32:02;;;;;;;4.07;1.70;;;;;;;27.75;22.52;99691.34;10383373;28;20457;-59
2022/08/21 15:37:07;;;;;;;4.10;1.70;;;;;;;27.71;22.60;99691.97;10359824;28;20057;-59
2022/08/21 15:42:11;;;;;;;4.30;1.80;;;;;;;27.64;22.94;99696.50;10382963;28;20049;-60
2022/08/21 15:47:18;;;;;;;4.80;2.35;;;;;;;27.69;23.01;99694.03;10375474;28;20057;-60
2022/08/21 15:52:21;;;;;;;5.15;1.75;;;;;;;27.70;22.93;99684.91;10382101;28;20049;-60
2022/08/21 15:57:25;;;;;;;4.82;1.90;;;;;;;27.73;23.35;99689.91;10365759;28;20049;-60
2022/08/21 16:02:30;;;;;;;7.97;1.67;;;;;;;27.77;23.77;99686.59;10382867;28;20133;-59
2022/08/21 16:07:32;;;;;;;5.57;1.75;;;;;;;27.75;23.58;99694.03;10381955;28;20430;-60
2022/08/21 16:12:39;;;;;;;4.57;1.58;;;;;;;27.52;23.33;99690.91;10383090;28;20052;-59
2022/08/21 16:17:47;;;;;;;4.57;1.73;;;;;;;27.54;23.85;99690.72;10382006;28;20075;-59
2022/08/21 16:22:49;;;;;;;5.13;1.80;;;;;;;27.56;24.93;99685.94;10377413;28;20071;-59
2022/08/21 16:27:57;;;;;;;4.53;1.70;;;;;;;27.51;23.52;99681.19;10380494;28;20045;-59
2022/08/21 16:33:02;;;;;;;4.10;1.90;;;;;;;27.12;23.69;99681.94;10381879;28;20045;-59
2022/08/21 16:38:04;;;;;;;4.75;1.70;;;;;;;27.04;24.13;99684.00;10378940;28;20520;-60
2022/08/21 16:43:07;;;;;;;3.45;1.60;;;;;;;27.07;24.10;99670.19;10382312;28;20477;-60
2022/08/21 16:48:08;;;;;;;5.32;2.08;;;;;;;26.98;24.82;99658.78;10387599;28;20060;-59
2022/08/21 16:53:10;;;;;;;4.88;1.95;;;;;;;26.86;24.19;99649.69;10387442;28;20056;-59
2022/08/21 16:58:26;;;;;;;5.70;1.80;;;;;;;26.79;25.31;99664.13;10389564;28;20057;-59
2022/08/21 17:03:32;;;;;;;4.50;1.60;;;;;;;26.66;24.75;99643.44;10388171;28;20041;-60
2022/08/21 17:08:35;;;;;;;4.18;1.77;;;;;;;26.55;24.76;99652.91;10387541;28;20506;-60
2022/08/21 17:13:37;;;;;;;4.03;1.65;;;;;;;26.56;24.82;99649.19;10388868;28;20428;-59
2022/08/21 17:18:39;;;;;;;6.65;2.00;;;;;;;26.31;24.87;99639.97;10386550;28;20053;-60
2022/08/21 17:23:41;;;;;;;3.97;1.60;;;;;;;26.09;25.51;99648.31;10386646;28;20061;-60
2022/08/21 17:28:44;;;;;;;3.55;1.73;;;;;;;25.99;25.65;99645.16;10387319;28;20405;-60
2022/08/21 17:33:50;;;;;;;5.03;1.70;;;;;;;25.90;25.79;99644.47;10387447;28;20492;-60
2022/08/21 17:38:52;;;;;;;5.80;1.77;;;;;;;25.78;26.28;99652.22;10386042;28;20089;-60
2022/08/21 17:43:54;;;;;;;4.18;1.75;;;;;;;25.69;26.41;99648.03;10385409;28;20150;-59
2022/08/21 17:48:57;;;;;;;6.25;1.40;;;;;;;25.54;26.66;99651.84;10381802;28;20545;-59
2022/08/21 17:53:58;;;;;;;5.82;1.70;;;;;;;25.35;27.56;99655.16;10385047;28;20045;-60
2022/08/21 17:59:03;;;;;;;5.72;1.70;;;;;;;25.18;28.00;99654.59;10381862;28;20048;-59
2022/08/21 18:04:09;;;;;;;7.93;1.70;;;;;;;25.06;28.58;99659.63;10385174;28;20379;-60
2022/08/21 18:09:12;;;;;;;3.95;1.80;;;;;;;24.92;28.94;99657.81;10385527;28;20038;-59
2022/08/21 18:14:14;;;;;;;5.40;1.50;;;;;;;24.71;29.64;99662.31;10385146;28;20234;-59
2022/08/21 18:19:20;;;;;;;4.28;1.50;;;;;;;24.53;29.99;99670.72;10386764;28;20051;-59
2022/08/21 18:24:22;;;;;;;4.72;1.90;;;;;;;24.44;29.88;99668.34;10385399;28;20692;-59
2022/08/21 18:29:24;;;;;;;5.95;1.70;;;;;;;24.31;30.53;99678.88;10386888;28;20049;-59
2022/08/21 18:34:30;;;;;;;8.38;2.00;;;;;;;24.22;30.48;99680.81;10387429;28;20588;-60
2022/08/21 18:39:32;;;;;;;5.22;1.88;;;;;;;23.91;30.37;99698.81;10384048;28;21441;-59
2022/08/21 18:44:40;;;;;;;5.93;1.73;;;;;;;23.59;30.94;99699.97;10385414;28;20049;-59
2022/08/21 18:49:41;;;;;;;7.60;1.70;;;;;;;23.51;31.21;99702.69;10384288;28;20068;-59
2022/08/21 18:54:43;;;;;;;5.13;1.67;;;;;;;23.43;31.69;99708.91;10387057;28;20148;-59
2022/08/21 18:59:45;;;;;;;4.85;1.58;;;;;;;23.36;32.74;99709.78;10385384;28;20060;-60
2022/08/21 19:04:48;;;;;;;4.72;1.80;;;;;;;23.20;33.02;99721.41;10386222;28;20076;-59
2022/08/21 19:09:51;;;;;;;6.63;1.70;;;;;;;22.95;33.31;99727.06;10385006;28;20325;-60
2022/08/21 19:15:18;;;;;;;4.55;1.70;;;;;;;22.66;33.32;99739.19;10385007;28;20528;-60
2022/08/21 19:20:28;;;;;;;4.38;1.60;;;;;;;22.54;33.53;99737.06;10381805;28;20505;-60
2022/08/21 19:25:32;;;;;;;6.70;1.63;;;;;;;22.56;33.49;99738.56;10383223;28;20051;-60
2022/08/21 19:30:41;;;;;;;5.57;1.90;;;;;;;22.57;33.97;99742.06;10383678;28;20111;-59
2022/08/21 19:35:46;;;;;;;3.92;1.50;;;;;;;22.55;34.03;99744.06;10383471;28;20057;-60
2022/08/21 19:40:53;;;;;;;4.13;1.63;;;;;;;22.44;34.07;99742.59;10383286;28;20056;-59
2022/08/21 19:45:57;;;;;;;7.05;2.17;;;;;;;22.49;33.75;99752.75;10381562;28;20053;-60
2022/08/21 19:50:58;;;;;;;4.30;1.70;;;;;;;22.33;34.13;99747.47;10374316;28;20817;-60
2022/08/21 19:56:00;;;;;;;4.95;1.73;;;;;;;22.36;34.29;99760.44;10381896;28;20055;-60
2022/08/21 20:01:06;;;;;;;4.45;1.65;;;;;;;22.35;33.92;99754.28;10384024;28;20056;-60
2022/08/21 20:06:17;;;;;;;4.50;1.65;;;;;;;22.27;34.12;99753.50;10384934;28;20049;-60
2022/08/21 20:11:29;;;;;;;6.65;1.75;;;;;;;22.17;34.40;99759.00;10382657;28;20049;-60
2022/08/21 20:16:33;;;;;;;4.40;1.50;;;;;;;22.25;34.54;99756.31;10381583;28;20140;-59
2022/08/21 20:21:36;;;;;;;5.65;1.90;;;;;;;22.20;34.30;99766.66;10390461;28;20292;-59
2022/08/21 20:26:45;;;;;;;6.47;1.88;;;;;;;22.08;34.91;99762.69;10389340;28;20442;-60
2022/08/21 20:32:08;;;;;;;3.28;1.42;;;;;;;22.02;35.06;99760.66;10387285;28;20045;-60
2022/08/21 20:37:13;;;;;;;6.03;1.73;;;;;;;21.99;35.44;99770.81;10387199;28;20296;-60
2022/08/21 20:42:35;;;;;;;4.28;1.60;;;;;;;21.88;35.27;99772.00;10389573;28;20061;-60
2022/08/21 20:47:38;;;;;;;3.78;1.60;;;;;;;21.79;35.65;99775.66;10390950;28;20057;-60
2022/08/21 20:52:40;;;;;;;5.45;1.60;;;;;;;21.68;36.15;99781.31;10390357;28;20049;-59
2022/08/21 20:57:55;;;;;;;5.18;1.83;;;;;;;21.50;36.59;99786.78;10390096;28;20045;-60
2022/08/21 21:03:07;;;;;;;4.13;1.65;;;;;;;21.41;36.64;99789.59;10389481;28;20571;-60
2022/08/21 21:08:18;;;;;;;7.05;1.90;;;;;;;21.49;36.68;99792.28;10389398;28;20041;-60
2022/08/21 21:13:30;;;;;;;6.15;1.70;;;;;;;21.44;36.59;99798.09;10376937;28;20053;-60
2022/08/21 21:18:47;;;;;;;5.63;1.90;;;;;;;21.07;38.04;99801.13;10379504;28;20045;-60
2022/08/21 21:23:58;;;;;;;5.93;1.90;;;;;;;21.06;38.52;99804.78;10382464;28;20068;-60
2022/08/21 21:29:09;;;;;;;3.95;1.67;;;;;;;21.04;38.43;99806.78;10386232;28;20490;-59
2022/08/21 21:34:12;;;;;;;4.75;1.88;;;;;;;20.99;38.33;99808.22;10386822;28;20049;-59
2022/08/21 21:39:33;;;;;;;5.70;2.10;;;;;;;20.87;38.18;99804.19;10387689;28;20061;-60
2022/08/21 21:44:57;;;;;;;4.57;1.77;;;;;;;20.55;38.78;99819.97;10388045;28;20049;-59
2022/08/21 21:50:37;;;;;;;6.88;1.70;;;;;;;20.28;39.39;99823.63;10388255;28;20064;-59
2022/08/21 21:56:20;;;;;;;5.00;1.90;;;;;;;20.18;40.16;99823.72;10387299;28;20497;-60
2022/08/21 22:01:39;;;;;;;4.15;1.60;;;;;;;20.39;39.52;99827.84;10384899;28;20049;-60
2022/08/21 22:06:55;;;;;;;4.23;1.80;;;;;;;20.51;39.28;99829.25;10385896;28;20053;-59
2022/08/21 22:12:22;;;;;;;3.47;1.63;;;;;;;20.43;39.33;99827.38;10386221;28;20051;-59
2022/08/21 22:17:43;;;;;;;10.10;3.03;;;;;;;20.35;39.59;99829.97;10381809;28;20231;-59
2022/08/21 22:22:46;;;;;;;5.07;1.75;;;;;;;20.35;39.81;99832.63;10386938;28;20198;-60
2022/08/21 22:27:58;;;;;;;5.00;1.83;;;;;;;20.26;40.11;99841.53;10377410;28;20518;-60
2022/08/21 22:33:00;;;;;;;5.35;1.98;;;;;;;20.03;40.68;99835.06;10381752;28;20045;-59
2022/08/21 22:38:14;;;;;;;3.85;1.50;;;;;;;19.83;41.12;99830.88;10383546;28;20405;-59
2022/08/21 22:43:25;;;;;;;4.20;1.88;;;;;;;19.95;40.97;99825.19;10382203;28;20057;-59
2022/08/21 22:48:31;;;;;;;5.63;1.80;;;;;;;20.03;40.84;99832.41;10373589;28;20057;-59
2022/08/21 22:53:36;;;;;;;5.30;1.70;;;;;;;19.89;40.99;99822.31;10375813;28;20084;-59
2022/08/21 22:58:54;;;;;;;3.22;1.50;;;;;;;19.71;41.53;99826.78;10377285;28;20072;-59
2022/08/21 23:04:10;;;;;;;5.88;1.90;;;;;;;19.70;41.43;99822.47;10379248;28;20052;-60
2022/08/21 23:09:27;;;;;;;5.38;1.88;;;;;;;19.38;42.19;99828.28;10383891;28;20057;-60
2022/08/21 23:14:28;;;;;;;4.82;1.70;;;;;;;19.36;42.49;99831.09;10382495;28;20053;-59
2022/08/21 23:19:33;;;;;;;3.88;1.80;;;;;;;19.28;42.76;99825.69;10383417;28;20054;-59
2022/08/21 23:25:11;;;;;;;6.30;1.88;;;;;;;19.15;43.31;99827.03;10379602;28;20150;-59
2022/08/21 23:30:19;;;;;;;4.53;1.85;;;;;;;18.98;43.41;99825.97;10383072;28;20060;-59
2022/08/21 23:37:47;;;;;;;5.05;1.90;;;;;;;18.83;43.97;99822.13;10380056;28;20140;-59
2022/08/21 23:40:55;;;;;;;5.13;2.03;;;;;;;18.95;43.91;99823.59;10382534;28;20050;-59
2022/08/21 23:46:25;;;;;;;5.78;2.10;;;;;;;18.74;44.48;99827.50;10380200;28;20053;-59
2022/08/21 23:51:54;;;;;;;7.80;2.00;;;;;;;18.74;44.59;99827.50;10381361;28;20041;-59